Terminal Aerodrome Forecast
Issued by NWS

Home | Current Version | Previous Version | Text Only | Print | Product List | Glossary On
Versions: 1 2 3 4 5 6 7 8 9 10 11 12 13 14
000
FTUS44 KLIX 291100
TAFMCB
TAF
KMCB 291130Z 2912/3012 VRB03KT P6SM SCT250
     FM291600 20007KT P6SM SCT250
     FM300000 24005KT P6SM BKN090
     FM300600 36009KT P6SM BKN250=

USA.gov is the U.S. government's official web portal to all federal, state and local government web resources and services.